sensor_id;sensor_type;location;lat;lon;timestamp;temperature;humidity
54684;DHT22;40582;53.100;6.686;2023-08-06T00:00:24;14.40;99.90
54684;DHT22;40582;53.100;6.686;2023-08-06T00:02:50;14.40;99.90
54684;DHT22;40582;53.100;6.686;2023-08-06T00:05:16;14.40;99.90
54684;DHT22;40582;53.100;6.686;2023-08-06T00:07:47;14.40;99.90
54684;DHT22;40582;53.100;6.686;2023-08-06T00:10:13;14.40;99.90
54684;DHT22;40582;53.100;6.686;2023-08-06T00:12:38;14.40;99.90
54684;DHT22;40582;53.100;6.686;2023-08-06T00:15:04;14.50;99.90
54684;DHT22;40582;53.100;6.686;2023-08-06T00:17:30;14.50;99.90
54684;DHT22;40582;53.100;6.686;2023-08-06T00:19:56;14.50;99.90
54684;DHT22;40582;53.100;6.686;2023-08-06T00:22:21;14.50;99.90
54684;DHT22;40582;53.100;6.686;2023-08-06T00:24:47;14.50;99.90
54684;DHT22;40582;53.100;6.686;2023-08-06T00:27:13;14.50;99.90
54684;DHT22;40582;53.100;6.686;2023-08-06T00:29:38;14.50;99.90
54684;DHT22;40582;53.100;6.686;2023-08-06T00:32:04;14.50;99.90
54684;DHT22;40582;53.100;6.686;2023-08-06T00:34:30;14.40;99.90
54684;DHT22;40582;53.100;6.686;2023-08-06T00:36:56;14.50;99.90
54684;DHT22;40582;53.100;6.686;2023-08-06T00:39:21;14.60;99.90
54684;DHT22;40582;53.100;6.686;2023-08-06T00:41:47;14.60;99.90
54684;DHT22;40582;53.100;6.686;2023-08-06T00:44:12;14.50;99.90
54684;DHT22;40582;53.100;6.686;2023-08-06T00:46:38;14.50;99.90
54684;DHT22;40582;53.100;6.686;2023-08-06T00:49:04;14.60;99.90
54684;DHT22;40582;53.100;6.686;2023-08-06T00:51:30;14.50;99.90
54684;DHT22;40582;53.100;6.686;2023-08-06T00:53:57;14.50;99.90
54684;DHT22;40582;53.100;6.686;2023-08-06T00:56:24;14.50;99.90
54684;DHT22;40582;53.100;6.686;2023-08-06T00:58:51;14.50;99.90
54684;DHT22;40582;53.100;6.686;2023-08-06T01:01:16;14.60;99.90
54684;DHT22;40582;53.100;6.686;2023-08-06T01:03:42;14.50;99.90
54684;DHT22;40582;53.100;6.686;2023-08-06T01:06:08;14.60;99.90
54684;DHT22;40582;53.100;6.686;2023-08-06T01:08:58;14.60;99.90
54684;DHT22;40582;53.100;6.686;2023-08-06T01:14:08;14.50;99.90
54684;DHT22;40582;53.100;6.686;2023-08-06T01:16:37;14.40;99.90
54684;DHT22;40582;53.100;6.686;2023-08-06T01:19:05;14.40;99.90
54684;DHT22;40582;53.100;6.686;2023-08-06T01:21:40;14.40;99.90
54684;DHT22;40582;53.100;6.686;2023-08-06T01:24:06;14.40;99.90
54684;DHT22;40582;53.100;6.686;2023-08-06T01:26:51;14.50;99.90
54684;DHT22;40582;53.100;6.686;2023-08-06T01:29:28;14.50;99.90
54684;DHT22;40582;53.100;6.686;2023-08-06T01:31:56;14.40;99.90
54684;DHT22;40582;53.100;6.686;2023-08-06T01:34:30;14.50;99.90
54684;DHT22;40582;53.100;6.686;2023-08-06T01:36:57;14.50;99.90
54684;DHT22;40582;53.100;6.686;2023-08-06T01:39:23;14.60;99.90
54684;DHT22;40582;53.100;6.686;2023-08-06T01:41:48;14.50;99.90
54684;DHT22;40582;53.100;6.686;2023-08-06T01:44:15;14.60;99.90
54684;DHT22;40582;53.100;6.686;2023-08-06T01:46:41;14.50;99.90
54684;DHT22;40582;53.100;6.686;2023-08-06T01:49:07;14.50;99.90
54684;DHT22;40582;53.100;6.686;2023-08-06T01:51:32;14.50;99.90
54684;DHT22;40582;53.100;6.686;2023-08-06T01:53:58;14.60;99.90
54684;DHT22;40582;53.100;6.686;2023-08-06T01:56:24;14.50;99.90
54684;DHT22;40582;53.100;6.686;2023-08-06T01:58:50;14.50;99.90
54684;DHT22;40582;53.100;6.686;2023-08-06T02:01:15;14.50;99.90
54684;DHT22;40582;53.100;6.686;2023-08-06T02:03:41;14.50;99.90
54684;DHT22;40582;53.100;6.686;2023-08-06T02:06:06;14.50;99.90
54684;DHT22;40582;53.100;6.686;2023-08-06T02:08:32;14.50;99.90
54684;DHT22;40582;53.100;6.686;2023-08-06T02:10:58;14.50;99.90
54684;DHT22;40582;53.100;6.686;2023-08-06T02:13:24;14.50;99.90
54684;DHT22;40582;53.100;6.686;2023-08-06T02:15:49;14.50;99.90
54684;DHT22;40582;53.100;6.686;2023-08-06T02:18:15;14.50;99.90
54684;DHT22;40582;53.100;6.686;2023-08-06T02:20:42;14.40;99.90
54684;DHT22;40582;53.100;6.686;2023-08-06T02:23:08;14.40;99.90
54684;DHT22;40582;53.100;6.686;2023-08-06T02:25:34;14.40;99.90
54684;DHT22;40582;53.100;6.686;2023-08-06T02:28:00;14.30;99.90
54684;DHT22;40582;53.100;6.686;2023-08-06T02:30:25;14.30;99.90
54684;DHT22;40582;53.100;6.686;2023-08-06T02:32:51;14.30;99.90
54684;DHT22;40582;53.100;6.686;2023-08-06T02:35:17;14.20;99.90
54684;DHT22;40582;53.100;6.686;2023-08-06T02:37:42;14.20;99.90
54684;DHT22;40582;53.100;6.686;2023-08-06T02:40:08;14.30;99.90
54684;DHT22;40582;53.100;6.686;2023-08-06T02:42:34;14.30;99.90
54684;DHT22;40582;53.100;6.686;2023-08-06T02:44:59;14.30;99.90
54684;DHT22;40582;53.100;6.686;2023-08-06T02:47:25;14.30;99.90
54684;DHT22;40582;53.100;6.686;2023-08-06T02:49:51;14.30;99.90
54684;DHT22;40582;53.100;6.686;2023-08-06T02:52:17;14.40;99.90
54684;DHT22;40582;53.100;6.686;2023-08-06T02:54:43;14.40;99.90
54684;DHT22;40582;53.100;6.686;2023-08-06T02:57:08;14.40;99.90
54684;DHT22;40582;53.100;6.686;2023-08-06T02:59:34;14.50;99.90
54684;DHT22;40582;53.100;6.686;2023-08-06T03:02:00;14.40;99.90
54684;DHT22;40582;53.100;6.686;2023-08-06T03:04:25;14.40;99.90
54684;DHT22;40582;53.100;6.686;2023-08-06T03:06:51;14.40;99.90
54684;DHT22;40582;53.100;6.686;2023-08-06T03:09:17;14.40;99.90
54684;DHT22;40582;53.100;6.686;2023-08-06T03:11:43;14.40;99.90
54684;DHT22;40582;53.100;6.686;2023-08-06T03:14:09;14.40;99.90
54684;DHT22;40582;53.100;6.686;2023-08-06T03:16:35;14.40;99.90
54684;DHT22;40582;53.100;6.686;2023-08-06T03:19:00;14.40;99.90
54684;DHT22;40582;53.100;6.686;2023-08-06T03:21:26;14.40;99.90
54684;DHT22;40582;53.100;6.686;2023-08-06T03:23:52;14.50;99.90
54684;DHT22;40582;53.100;6.686;2023-08-06T03:26:18;14.50;99.90
54684;DHT22;40582;53.100;6.686;2023-08-06T03:28:43;14.50;99.90
54684;DHT22;40582;53.100;6.686;2023-08-06T03:31:09;14.40;99.90
54684;DHT22;40582;53.100;6.686;2023-08-06T03:33:35;14.40;99.90
54684;DHT22;40582;53.100;6.686;2023-08-06T03:36:01;14.30;99.90
54684;DHT22;40582;53.100;6.686;2023-08-06T03:38:26;14.30;99.90
54684;DHT22;40582;53.100;6.686;2023-08-06T03:40:53;14.30;99.90
54684;DHT22;40582;53.100;6.686;2023-08-06T03:43:19;14.30;99.90
54684;DHT22;40582;53.100;6.686;2023-08-06T03:45:45;14.30;99.90
54684;DHT22;40582;53.100;6.686;2023-08-06T03:48:11;14.30;99.90
54684;DHT22;40582;53.100;6.686;2023-08-06T03:50:36;14.30;99.90
54684;DHT22;40582;53.100;6.686;2023-08-06T03:53:03;14.30;99.90
54684;DHT22;40582;53.100;6.686;2023-08-06T03:55:29;14.20;99.90
54684;DHT22;40582;53.100;6.686;2023-08-06T03:57:54;14.20;99.90
54684;DHT22;40582;53.100;6.686;2023-08-06T04:00:20;14.20;99.90
54684;DHT22;40582;53.100;6.686;2023-08-06T04:02:46;14.10;99.90
54684;DHT22;40582;53.100;6.686;2023-08-06T04:05:12;14.00;99.90
54684;DHT22;40582;53.100;6.686;2023-08-06T04:07:37;14.00;99.90
54684;DHT22;40582;53.100;6.686;2023-08-06T04:10:04;13.90;99.90
54684;DHT22;40582;53.100;6.686;2023-08-06T04:12:30;13.90;99.90
54684;DHT22;40582;53.100;6.686;2023-08-06T04:15:01;13.80;99.90
54684;DHT22;40582;53.100;6.686;2023-08-06T04:17:27;13.80;99.90
54684;DHT22;40582;53.100;6.686;2023-08-06T04:19:53;13.80;99.90
54684;DHT22;40582;53.100;6.686;2023-08-06T04:22:20;13.70;99.90
54684;DHT22;40582;53.100;6.686;2023-08-06T04:24:46;13.70;99.90
54684;DHT22;40582;53.100;6.686;2023-08-06T04:27:13;13.60;99.90
54684;DHT22;40582;53.100;6.686;2023-08-06T04:29:39;13.60;99.90
54684;DHT22;40582;53.100;6.686;2023-08-06T04:32:07;13.60;99.90
54684;DHT22;40582;53.100;6.686;2023-08-06T04:34:33;13.60;99.90
54684;DHT22;40582;53.100;6.686;2023-08-06T04:37:00;13.60;99.90
54684;DHT22;40582;53.100;6.686;2023-08-06T04:39:26;13.60;99.90
54684;DHT22;40582;53.100;6.686;2023-08-06T04:41:52;13.60;99.90
54684;DHT22;40582;53.100;6.686;2023-08-06T04:44:17;13.60;99.90
54684;DHT22;40582;53.100;6.686;2023-08-06T04:46:43;13.60;99.90
54684;DHT22;40582;53.100;6.686;2023-08-06T04:49:09;13.60;99.90
54684;DHT22;40582;53.100;6.686;2023-08-06T04:51:34;13.60;99.90
54684;DHT22;40582;53.100;6.686;2023-08-06T04:54:00;13.70;99.90
54684;DHT22;40582;53.100;6.686;2023-08-06T04:56:26;13.60;99.90
54684;DHT22;40582;53.100;6.686;2023-08-06T04:58:52;13.60;99.90
54684;DHT22;40582;53.100;6.686;2023-08-06T05:01:18;13.60;99.90
54684;DHT22;40582;53.100;6.686;2023-08-06T05:03:44;13.60;99.90
54684;DHT22;40582;53.100;6.686;2023-08-06T05:06:09;13.60;99.90
54684;DHT22;40582;53.100;6.686;2023-08-06T05:08:36;13.60;99.90
54684;DHT22;40582;53.100;6.686;2023-08-06T05:11:01;13.70;99.90
54684;DHT22;40582;53.100;6.686;2023-08-06T05:13:27;13.70;99.90
54684;DHT22;40582;53.100;6.686;2023-08-06T05:15:53;13.80;99.90
54684;DHT22;40582;53.100;6.686;2023-08-06T05:18:19;13.90;99.90
54684;DHT22;40582;53.100;6.686;2023-08-06T05:20:45;14.10;99.90
54684;DHT22;40582;53.100;6.686;2023-08-06T05:23:11;14.20;99.90
54684;DHT22;40582;53.100;6.686;2023-08-06T05:25:38;14.20;99.90
54684;DHT22;40582;53.100;6.686;2023-08-06T05:28:04;14.40;99.90
54684;DHT22;40582;53.100;6.686;2023-08-06T05:30:30;14.50;99.90
54684;DHT22;40582;53.100;6.686;2023-08-06T05:32:55;14.60;99.90
54684;DHT22;40582;53.100;6.686;2023-08-06T05:35:22;14.70;99.90
54684;DHT22;40582;53.100;6.686;2023-08-06T05:37:48;14.70;99.90
54684;DHT22;40582;53.100;6.686;2023-08-06T05:40:14;14.90;99.90
54684;DHT22;40582;53.100;6.686;2023-08-06T05:42:40;15.00;99.90
54684;DHT22;40582;53.100;6.686;2023-08-06T05:45:07;15.00;99.90
54684;DHT22;40582;53.100;6.686;2023-08-06T05:47:32;15.10;99.90
54684;DHT22;40582;53.100;6.686;2023-08-06T05:49:58;15.30;99.90
54684;DHT22;40582;53.100;6.686;2023-08-06T05:52:24;15.30;99.90
54684;DHT22;40582;53.100;6.686;2023-08-06T05:54:50;15.30;99.90
54684;DHT22;40582;53.100;6.686;2023-08-06T05:57:16;15.40;99.90
54684;DHT22;40582;53.100;6.686;2023-08-06T05:59:42;15.50;99.90
54684;DHT22;40582;53.100;6.686;2023-08-06T06:02:07;15.50;99.90
54684;DHT22;40582;53.100;6.686;2023-08-06T06:04:33;15.70;99.90
54684;DHT22;40582;53.100;6.686;2023-08-06T06:06:59;15.80;99.90
54684;DHT22;40582;53.100;6.686;2023-08-06T06:09:25;16.00;99.90
54684;DHT22;40582;53.100;6.686;2023-08-06T06:11:50;16.10;99.90
54684;DHT22;40582;53.100;6.686;2023-08-06T06:14:17;16.40;99.90
54684;DHT22;40582;53.100;6.686;2023-08-06T06:16:43;16.70;99.90
54684;DHT22;40582;53.100;6.686;2023-08-06T06:19:09;16.90;99.90
54684;DHT22;40582;53.100;6.686;2023-08-06T06:21:34;17.10;99.90
54684;DHT22;40582;53.100;6.686;2023-08-06T06:24:00;17.10;99.90
54684;DHT22;40582;53.100;6.686;2023-08-06T06:26:26;17.20;99.90
54684;DHT22;40582;53.100;6.686;2023-08-06T06:28:52;17.20;99.90
54684;DHT22;40582;53.100;6.686;2023-08-06T06:31:17;17.20;99.90
54684;DHT22;40582;53.100;6.686;2023-08-06T06:33:43;17.10;99.90
54684;DHT22;40582;53.100;6.686;2023-08-06T06:36:09;17.00;99.90
54684;DHT22;40582;53.100;6.686;2023-08-06T06:38:35;16.90;99.90
54684;DHT22;40582;53.100;6.686;2023-08-06T06:41:01;16.90;99.90
54684;DHT22;40582;53.100;6.686;2023-08-06T06:43:28;17.00;99.90
54684;DHT22;40582;53.100;6.686;2023-08-06T06:45:57;17.00;99.90
54684;DHT22;40582;53.100;6.686;2023-08-06T06:48:25;17.00;99.90
54684;DHT22;40582;53.100;6.686;2023-08-06T06:50:51;17.10;99.90
54684;DHT22;40582;53.100;6.686;2023-08-06T06:53:16;17.20;99.90
54684;DHT22;40582;53.100;6.686;2023-08-06T06:55:42;17.20;99.90
54684;DHT22;40582;53.100;6.686;2023-08-06T06:58:08;17.10;99.90
54684;DHT22;40582;53.100;6.686;2023-08-06T07:00:36;17.20;99.90
54684;DHT22;40582;53.100;6.686;2023-08-06T07:03:02;17.30;99.90
54684;DHT22;40582;53.100;6.686;2023-08-06T07:05:28;17.40;99.90
54684;DHT22;40582;53.100;6.686;2023-08-06T07:07:54;17.40;99.90
54684;DHT22;40582;53.100;6.686;2023-08-06T07:10:19;17.50;99.90
54684;DHT22;40582;53.100;6.686;2023-08-06T07:12:45;17.50;99.90
54684;DHT22;40582;53.100;6.686;2023-08-06T07:15:11;17.60;99.90
54684;DHT22;40582;53.100;6.686;2023-08-06T07:17:37;17.80;99.90
54684;DHT22;40582;53.100;6.686;2023-08-06T07:20:03;18.00;99.90
54684;DHT22;40582;53.100;6.686;2023-08-06T07:22:29;18.10;99.90
54684;DHT22;40582;53.100;6.686;2023-08-06T07:24:55;18.20;99.90
54684;DHT22;40582;53.100;6.686;2023-08-06T07:27:21;18.40;99.90
54684;DHT22;40582;53.100;6.686;2023-08-06T07:29:46;19.70;99.90
54684;DHT22;40582;53.100;6.686;2023-08-06T07:32:13;20.00;99.90
54684;DHT22;40582;53.100;6.686;2023-08-06T07:34:39;19.90;99.90
54684;DHT22;40582;53.100;6.686;2023-08-06T07:37:05;19.80;99.90
54684;DHT22;40582;53.100;6.686;2023-08-06T07:39:31;19.70;99.90
54684;DHT22;40582;53.100;6.686;2023-08-06T07:41:57;19.70;99.90
54684;DHT22;40582;53.100;6.686;2023-08-06T07:44:22;19.70;99.90
54684;DHT22;40582;53.100;6.686;2023-08-06T07:46:49;19.80;99.90
54684;DHT22;40582;53.100;6.686;2023-08-06T07:49:15;20.10;99.90
54684;DHT22;40582;53.100;6.686;2023-08-06T07:51:40;20.30;99.90
54684;DHT22;40582;53.100;6.686;2023-08-06T07:54:06;20.20;99.90
54684;DHT22;40582;53.100;6.686;2023-08-06T07:56:32;20.20;99.90
54684;DHT22;40582;53.100;6.686;2023-08-06T07:58:58;20.20;99.90
54684;DHT22;40582;53.100;6.686;2023-08-06T08:01:23;20.20;99.90
54684;DHT22;40582;53.100;6.686;2023-08-06T08:03:49;20.30;99.90
54684;DHT22;40582;53.100;6.686;2023-08-06T08:06:14;20.40;99.90
54684;DHT22;40582;53.100;6.686;2023-08-06T08:08:40;20.50;99.90
54684;DHT22;40582;53.100;6.686;2023-08-06T08:11:06;20.70;99.90
54684;DHT22;40582;53.100;6.686;2023-08-06T08:13:32;21.10;99.90
54684;DHT22;40582;53.100;6.686;2023-08-06T08:15:58;21.20;99.90
54684;DHT22;40582;53.100;6.686;2023-08-06T08:18:24;21.20;99.90
54684;DHT22;40582;53.100;6.686;2023-08-06T08:20:50;21.20;99.90
54684;DHT22;40582;53.100;6.686;2023-08-06T08:23:16;21.20;99.90
54684;DHT22;40582;53.100;6.686;2023-08-06T08:25:42;21.20;99.90
54684;DHT22;40582;53.100;6.686;2023-08-06T08:28:07;21.20;99.90
54684;DHT22;40582;53.100;6.686;2023-08-06T08:30:33;21.30;99.90
54684;DHT22;40582;53.100;6.686;2023-08-06T08:32:59;21.40;99.90
54684;DHT22;40582;53.100;6.686;2023-08-06T08:35:25;21.50;99.90
54684;DHT22;40582;53.100;6.686;2023-08-06T08:37:50;21.60;99.90
54684;DHT22;40582;53.100;6.686;2023-08-06T08:40:17;21.70;99.90
54684;DHT22;40582;53.100;6.686;2023-08-06T08:42:43;21.90;99.90
54684;DHT22;40582;53.100;6.686;2023-08-06T08:45:15;22.20;99.90
54684;DHT22;40582;53.100;6.686;2023-08-06T08:47:42;22.70;99.90
54684;DHT22;40582;53.100;6.686;2023-08-06T08:50:09;22.80;99.90
54684;DHT22;40582;53.100;6.686;2023-08-06T08:52:40;23.10;99.90
54684;DHT22;40582;53.100;6.686;2023-08-06T08:55:07;23.30;99.90
54684;DHT22;40582;53.100;6.686;2023-08-06T08:57:33;23.60;99.90
54684;DHT22;40582;53.100;6.686;2023-08-06T08:59:59;23.80;99.90
54684;DHT22;40582;53.100;6.686;2023-08-06T09:02:27;23.80;99.90
54684;DHT22;40582;53.100;6.686;2023-08-06T09:04:57;23.70;99.90
54684;DHT22;40582;53.100;6.686;2023-08-06T09:07:25;23.60;99.90
54684;DHT22;40582;53.100;6.686;2023-08-06T09:09:52;23.60;99.90
54684;DHT22;40582;53.100;6.686;2023-08-06T09:12:18;23.50;99.90
54684;DHT22;40582;53.100;6.686;2023-08-06T09:14:44;23.50;99.90
54684;DHT22;40582;53.100;6.686;2023-08-06T09:17:10;23.50;99.90
54684;DHT22;40582;53.100;6.686;2023-08-06T09:19:36;23.50;99.90
54684;DHT22;40582;53.100;6.686;2023-08-06T09:22:02;23.50;99.90
54684;DHT22;40582;53.100;6.686;2023-08-06T09:24:28;23.40;99.90
54684;DHT22;40582;53.100;6.686;2023-08-06T09:26:53;23.40;99.90
54684;DHT22;40582;53.100;6.686;2023-08-06T09:29:20;23.40;99.90
54684;DHT22;40582;53.100;6.686;2023-08-06T09:31:50;23.40;99.90
54684;DHT22;40582;53.100;6.686;2023-08-06T09:34:22;23.40;99.90
54684;DHT22;40582;53.100;6.686;2023-08-06T09:36:49;23.50;99.90
54684;DHT22;40582;53.100;6.686;2023-08-06T09:39:21;23.60;99.90
54684;DHT22;40582;53.100;6.686;2023-08-06T09:41:47;23.90;99.90
54684;DHT22;40582;53.100;6.686;2023-08-06T09:46:42;24.20;99.90
54684;DHT22;40582;53.100;6.686;2023-08-06T09:49:07;24.30;99.90
54684;DHT22;40582;53.100;6.686;2023-08-06T09:51:35;24.40;99.90
54684;DHT22;40582;53.100;6.686;2023-08-06T09:54:05;24.30;99.90
54684;DHT22;40582;53.100;6.686;2023-08-06T09:56:33;24.10;99.90
54684;DHT22;40582;53.100;6.686;2023-08-06T09:59:06;24.00;99.90
54684;DHT22;40582;53.100;6.686;2023-08-06T10:01:35;24.00;99.90
54684;DHT22;40582;53.100;6.686;2023-08-06T10:04:03;23.90;99.90
54684;DHT22;40582;53.100;6.686;2023-08-06T10:06:31;24.20;99.90
54684;DHT22;40582;53.100;6.686;2023-08-06T10:08:58;24.30;99.90
54684;DHT22;40582;53.100;6.686;2023-08-06T10:11:24;24.40;99.90
54684;DHT22;40582;53.100;6.686;2023-08-06T10:14:02;24.50;99.90
54684;DHT22;40582;53.100;6.686;2023-08-06T10:16:30;24.50;99.90
54684;DHT22;40582;53.100;6.686;2023-08-06T10:18:56;24.50;99.90
54684;DHT22;40582;53.100;6.686;2023-08-06T10:21:24;24.50;99.90
54684;DHT22;40582;53.100;6.686;2023-08-06T10:23:56;24.30;99.90
54684;DHT22;40582;53.100;6.686;2023-08-06T10:26:29;24.30;99.90
54684;DHT22;40582;53.100;6.686;2023-08-06T10:28:55;24.30;99.90
54684;DHT22;40582;53.100;6.686;2023-08-06T10:31:53;24.40;99.90
54684;DHT22;40582;53.100;6.686;2023-08-06T10:34:20;24.50;99.90
54684;DHT22;40582;53.100;6.686;2023-08-06T10:36:46;24.50;99.90
54684;DHT22;40582;53.100;6.686;2023-08-06T10:39:14;24.50;99.90
54684;DHT22;40582;53.100;6.686;2023-08-06T10:41:42;24.50;99.90
54684;DHT22;40582;53.100;6.686;2023-08-06T10:44:10;24.50;99.90
54684;DHT22;40582;53.100;6.686;2023-08-06T10:46:36;24.70;99.90
54684;DHT22;40582;53.100;6.686;2023-08-06T10:49:03;24.80;99.90
54684;DHT22;40582;53.100;6.686;2023-08-06T10:51:30;24.70;99.80
54684;DHT22;40582;53.100;6.686;2023-08-06T10:53:56;24.50;99.60
54684;DHT22;40582;53.100;6.686;2023-08-06T10:56:25;24.50;99.90
54684;DHT22;40582;53.100;6.686;2023-08-06T10:58:54;24.50;99.90
54684;DHT22;40582;53.100;6.686;2023-08-06T11:01:22;24.40;99.90
54684;DHT22;40582;53.100;6.686;2023-08-06T11:03:48;24.20;99.90
54684;DHT22;40582;53.100;6.686;2023-08-06T11:06:19;24.10;99.90
54684;DHT22;40582;53.100;6.686;2023-08-06T11:08:50;24.00;99.90
54684;DHT22;40582;53.100;6.686;2023-08-06T11:11:17;23.90;99.70
54684;DHT22;40582;53.100;6.686;2023-08-06T11:13:45;23.70;99.90
54684;DHT22;40582;53.100;6.686;2023-08-06T11:16:13;23.60;99.90
54684;DHT22;40582;53.100;6.686;2023-08-06T11:18:40;23.60;99.90
54684;DHT22;40582;53.100;6.686;2023-08-06T11:21:07;23.60;99.90
54684;DHT22;40582;53.100;6.686;2023-08-06T11:23:34;23.70;99.90
54684;DHT22;40582;53.100;6.686;2023-08-06T11:26:00;23.70;99.90
54684;DHT22;40582;53.100;6.686;2023-08-06T11:28:27;23.70;99.40
54684;DHT22;40582;53.100;6.686;2023-08-06T11:30:53;23.70;99.30
54684;DHT22;40582;53.100;6.686;2023-08-06T11:33:27;23.70;99.60
54684;DHT22;40582;53.100;6.686;2023-08-06T11:35:58;23.70;99.10
54684;DHT22;40582;53.100;6.686;2023-08-06T11:38:30;23.70;99.80
54684;DHT22;40582;53.100;6.686;2023-08-06T11:40:56;23.70;99.20
54684;DHT22;40582;53.100;6.686;2023-08-06T11:43:22;23.90;99.40
54684;DHT22;40582;53.100;6.686;2023-08-06T11:45:49;24.00;99.40
54684;DHT22;40582;53.100;6.686;2023-08-06T11:48:14;24.00;99.00
54684;DHT22;40582;53.100;6.686;2023-08-06T11:50:40;24.10;99.00
54684;DHT22;40582;53.100;6.686;2023-08-06T11:53:06;24.10;98.80
54684;DHT22;40582;53.100;6.686;2023-08-06T11:55:32;24.20;99.10
54684;DHT22;40582;53.100;6.686;2023-08-06T11:58:02;24.20;99.10
54684;DHT22;40582;53.100;6.686;2023-08-06T12:00:29;24.00;99.00
54684;DHT22;40582;53.100;6.686;2023-08-06T12:02:54;23.70;99.00
54684;DHT22;40582;53.100;6.686;2023-08-06T12:05:22;23.60;98.80
54684;DHT22;40582;53.100;6.686;2023-08-06T12:07:53;23.50;98.60
54684;DHT22;40582;53.100;6.686;2023-08-06T12:10:19;23.40;98.90
54684;DHT22;40582;53.100;6.686;2023-08-06T12:12:46;23.50;99.00
54684;DHT22;40582;53.100;6.686;2023-08-06T12:15:12;23.70;99.20
54684;DHT22;40582;53.100;6.686;2023-08-06T12:17:38;23.80;99.10
54684;DHT22;40582;53.100;6.686;2023-08-06T12:20:05;24.00;98.90
54684;DHT22;40582;53.100;6.686;2023-08-06T12:22:32;24.00;98.60
54684;DHT22;40582;53.100;6.686;2023-08-06T12:25:02;24.20;98.20
54684;DHT22;40582;53.100;6.686;2023-08-06T12:27:34;24.30;98.00
54684;DHT22;40582;53.100;6.686;2023-08-06T12:30:00;24.40;97.80
54684;DHT22;40582;53.100;6.686;2023-08-06T12:32:25;24.50;97.80
54684;DHT22;40582;53.100;6.686;2023-08-06T12:34:51;24.60;97.60
54684;DHT22;40582;53.100;6.686;2023-08-06T12:37:17;24.60;97.60
54684;DHT22;40582;53.100;6.686;2023-08-06T12:39:42;24.60;97.10
54684;DHT22;40582;53.100;6.686;2023-08-06T12:42:08;24.50;97.30
54684;DHT22;40582;53.100;6.686;2023-08-06T12:44:34;24.40;96.50
54684;DHT22;40582;53.100;6.686;2023-08-06T12:47:00;24.40;95.90
54684;DHT22;40582;53.100;6.686;2023-08-06T12:49:26;24.40;96.10
54684;DHT22;40582;53.100;6.686;2023-08-06T12:51:52;24.50;96.70
54684;DHT22;40582;53.100;6.686;2023-08-06T12:54:19;24.70;96.60
54684;DHT22;40582;53.100;6.686;2023-08-06T12:56:46;24.50;96.20
54684;DHT22;40582;53.100;6.686;2023-08-06T12:59:13;24.30;96.00
54684;DHT22;40582;53.100;6.686;2023-08-06T13:01:39;23.90;96.00
54684;DHT22;40582;53.100;6.686;2023-08-06T13:04:04;23.90;96.50
54684;DHT22;40582;53.100;6.686;2023-08-06T13:06:30;23.80;95.80
54684;DHT22;40582;53.100;6.686;2023-08-06T13:09:01;23.80;95.60
54684;DHT22;40582;53.100;6.686;2023-08-06T13:11:27;23.80;96.40
54684;DHT22;40582;53.100;6.686;2023-08-06T13:13:52;24.10;96.60
54684;DHT22;40582;53.100;6.686;2023-08-06T13:16:18;24.10;97.20
54684;DHT22;40582;53.100;6.686;2023-08-06T13:18:44;23.80;97.70
54684;DHT22;40582;53.100;6.686;2023-08-06T13:21:09;23.70;97.90
54684;DHT22;40582;53.100;6.686;2023-08-06T13:23:35;23.70;98.20
54684;DHT22;40582;53.100;6.686;2023-08-06T13:26:01;23.90;97.60
54684;DHT22;40582;53.100;6.686;2023-08-06T13:28:26;23.90;97.30
54684;DHT22;40582;53.100;6.686;2023-08-06T13:30:52;23.70;96.70
54684;DHT22;40582;53.100;6.686;2023-08-06T13:33:18;23.40;97.00
54684;DHT22;40582;53.100;6.686;2023-08-06T13:35:43;23.10;97.60
54684;DHT22;40582;53.100;6.686;2023-08-06T13:38:09;22.80;98.20
54684;DHT22;40582;53.100;6.686;2023-08-06T13:40:35;22.70;98.90
54684;DHT22;40582;53.100;6.686;2023-08-06T13:43:01;22.50;98.90
54684;DHT22;40582;53.100;6.686;2023-08-06T13:45:26;22.40;99.40
54684;DHT22;40582;53.100;6.686;2023-08-06T13:47:53;22.30;99.70
54684;DHT22;40582;53.100;6.686;2023-08-06T13:50:19;22.40;99.90
54684;DHT22;40582;53.100;6.686;2023-08-06T13:52:47;22.50;99.90
54684;DHT22;40582;53.100;6.686;2023-08-06T13:55:13;22.60;99.80
54684;DHT22;40582;53.100;6.686;2023-08-06T13:57:38;22.70;99.80
54684;DHT22;40582;53.100;6.686;2023-08-06T14:00:05;22.70;99.50
54684;DHT22;40582;53.100;6.686;2023-08-06T14:02:31;22.60;99.30
54684;DHT22;40582;53.100;6.686;2023-08-06T14:04:56;22.50;99.90
54684;DHT22;40582;53.100;6.686;2023-08-06T14:07:22;22.50;99.90
54684;DHT22;40582;53.100;6.686;2023-08-06T14:09:48;22.50;99.90
54684;DHT22;40582;53.100;6.686;2023-08-06T14:12:15;22.60;99.90
54684;DHT22;40582;53.100;6.686;2023-08-06T14:14:40;22.50;99.90
54684;DHT22;40582;53.100;6.686;2023-08-06T14:17:06;22.50;99.90
54684;DHT22;40582;53.100;6.686;2023-08-06T14:19:32;22.40;99.90
54684;DHT22;40582;53.100;6.686;2023-08-06T14:21:58;22.50;99.90
54684;DHT22;40582;53.100;6.686;2023-08-06T14:24:23;22.80;99.90
54684;DHT22;40582;53.100;6.686;2023-08-06T14:26:49;22.70;99.90
54684;DHT22;40582;53.100;6.686;2023-08-06T14:29:15;22.70;99.90
54684;DHT22;40582;53.100;6.686;2023-08-06T14:31:41;22.70;99.60
54684;DHT22;40582;53.100;6.686;2023-08-06T14:34:07;22.70;99.80
54684;DHT22;40582;53.100;6.686;2023-08-06T14:36:32;22.70;99.80
54684;DHT22;40582;53.100;6.686;2023-08-06T14:38:58;22.50;99.90
54684;DHT22;40582;53.100;6.686;2023-08-06T14:41:24;22.50;99.90
54684;DHT22;40582;53.100;6.686;2023-08-06T14:43:50;22.60;99.90
54684;DHT22;40582;53.100;6.686;2023-08-06T14:46:16;22.40;99.90
54684;DHT22;40582;53.100;6.686;2023-08-06T14:48:41;22.30;99.90
54684;DHT22;40582;53.100;6.686;2023-08-06T14:51:08;22.20;99.90
54684;DHT22;40582;53.100;6.686;2023-08-06T14:53:34;22.10;99.90
54684;DHT22;40582;53.100;6.686;2023-08-06T14:56:00;22.00;99.90
54684;DHT22;40582;53.100;6.686;2023-08-06T14:58:25;21.80;99.90
54684;DHT22;40582;53.100;6.686;2023-08-06T15:00:51;21.60;99.90
54684;DHT22;40582;53.100;6.686;2023-08-06T15:03:17;21.40;99.90
54684;DHT22;40582;53.100;6.686;2023-08-06T15:05:49;21.30;99.90
54684;DHT22;40582;53.100;6.686;2023-08-06T15:08:14;21.10;99.90
54684;DHT22;40582;53.100;6.686;2023-08-06T15:10:40;20.90;99.90
54684;DHT22;40582;53.100;6.686;2023-08-06T15:13:06;20.90;99.90
54684;DHT22;40582;53.100;6.686;2023-08-06T15:15:32;20.90;99.90
54684;DHT22;40582;53.100;6.686;2023-08-06T15:17:58;20.80;99.90
54684;DHT22;40582;53.100;6.686;2023-08-06T15:20:24;20.90;99.90
54684;DHT22;40582;53.100;6.686;2023-08-06T15:22:50;20.90;99.90
54684;DHT22;40582;53.100;6.686;2023-08-06T15:25:15;21.10;99.90
54684;DHT22;40582;53.100;6.686;2023-08-06T15:27:41;21.10;99.90
54684;DHT22;40582;53.100;6.686;2023-08-06T15:30:07;21.20;99.90